Terminal Aerodrome Forecast
Issued by NWS

Current Version | Previous Version | Graphics & Text | Print | Product List | Glossary On
Versions: 1 2 3 4 5 6 7 8 9 10 11 12 13 14 15 16 17 18 19
441
FTUS41 KILN 251138
TAFLCK
TAF
KLCK 251138Z 2512/2612 22008KT P6SM SCT025 BKN040
      TEMPO 2512/2514 BKN025
     FM251600 23010G18KT P6SM SCT040
     FM260000 28007KT P6SM SCT050
     FM260300 32005KT P6SM SCT250
     FM260900 36004KT P6SM SCT250=

USA.gov is the U.S. government's official web portal to all federal, state and local government web resources and services.